Time;durP1;ratioP1;P1;durP2;ratioP2;P2;SDS_P1;SDS_P2;PMS_P1;PMS_P2;Temp;Humidity;BMP_temperature;BMP_pressure;BME280_temperature;BME280_humidity;BME280_pressure;Samples;Min_cycle;Max_cycle;Signal;HPM_P1;HPM_P2
2021/08/25 00:00:54;;;;;;;6.78;2.97;;;17.10;91.70;;;;;;5066080;28;20028;-85
2021/08/25 00:03:20;;;;;;;6.95;2.78;;;17.10;91.80;;;;;;5066190;28;20385;-84
2021/08/25 00:05:46;;;;;;;6.65;2.67;;;17.10;91.90;;;;;;5067393;28;20359;-84
2021/08/25 00:08:11;;;;;;;7.90;3.10;;;17.00;92.00;;;;;;5067705;28;20108;-84
2021/08/25 00:10:40;;;;;;;6.75;3.30;;;17.00;92.00;;;;;;5067189;28;20349;-84
2021/08/25 00:13:06;;;;;;;7.40;2.75;;;17.00;92.20;;;;;;5066100;28;20039;-84
2021/08/25 00:15:36;;;;;;;8.02;3.15;;;16.90;92.20;;;;;;5057654;28;20108;-85
2021/08/25 00:18:03;;;;;;;6.70;2.75;;;16.90;92.20;;;;;;5033358;28;20028;-85
2021/08/25 00:20:29;;;;;;;7.97;3.00;;;16.90;92.20;;;;;;5033147;28;20029;-85
2021/08/25 00:22:54;;;;;;;6.75;3.08;;;16.90;92.30;;;;;;5033623;28;20075;-85
2021/08/25 00:25:20;;;;;;;6.32;2.50;;;16.80;92.40;;;;;;5034689;28;20402;-85
2021/08/25 00:27:45;;;;;;;6.60;3.30;;;16.80;92.40;;;;;;5033190;28;20032;-85
2021/08/25 00:30:12;;;;;;;7.70;2.97;;;16.80;92.50;;;;;;5034078;28;20017;-85
2021/08/25 00:32:37;;;;;;;9.27;3.00;;;16.70;92.60;;;;;;5033918;28;20025;-85
2021/08/25 00:35:03;;;;;;;6.60;3.30;;;16.60;92.70;;;;;;5032702;28;20025;-84
2021/08/25 00:37:28;;;;;;;7.53;3.65;;;16.60;92.80;;;;;;5050935;28;20058;-84
2021/08/25 00:39:54;;;;;;;7.45;2.70;;;16.50;93.10;;;;;;5052151;28;20409;-84
2021/08/25 00:42:20;;;;;;;7.05;3.15;;;16.60;92.90;;;;;;5054247;28;20059;-84
2021/08/25 00:44:46;;;;;;;6.93;3.10;;;16.60;93.00;;;;;;5052368;28;20050;-85
2021/08/25 00:47:16;;;;;;;6.40;3.13;;;16.50;93.10;;;;;;5052155;28;20040;-85
2021/08/25 00:49:44;;;;;;;6.82;3.10;;;16.50;93.10;;;;;;5051906;28;20572;-85
2021/08/25 00:52:09;;;;;;;7.28;3.00;;;16.50;93.10;;;;;;5053506;28;20367;-84
2021/08/25 00:54:35;;;;;;;7.45;3.15;;;16.50;93.20;;;;;;5053435;28;20159;-84
2021/08/25 00:57:01;;;;;;;6.10;3.00;;;16.40;93.20;;;;;;5052181;28;20145;-84
2021/08/25 00:59:27;;;;;;;7.65;3.25;;;16.40;93.30;;;;;;5052291;28;20126;-84
2021/08/25 01:02:09;;;;;;;8.18;3.20;;;16.40;93.30;;;;;;5052415;28;20047;-84
2021/08/25 01:04:37;;;;;;;7.60;3.05;;;16.40;93.30;;;;;;5053492;28;20028;-85
2021/08/25 01:07:03;;;;;;;6.80;3.10;;;16.40;93.40;;;;;;5054198;28;20017;-84
2021/08/25 01:09:29;;;;;;;6.95;2.80;;;16.40;93.40;;;;;;5057481;28;20456;-86
2021/08/25 01:12:00;;;;;;;6.40;3.00;;;16.40;93.50;;;;;;5053646;28;20029;-88
2021/08/25 01:14:27;;;;;;;6.68;3.15;;;16.40;93.50;;;;;;5053085;28;20446;-86
2021/08/25 01:16:53;;;;;;;10.10;3.45;;;16.40;93.50;;;;;;5054126;28;20040;-86
2021/08/25 01:19:19;;;;;;;6.18;2.50;;;16.40;93.50;;;;;;5055361;28;20017;-85
2021/08/25 01:21:49;;;;;;;7.38;2.85;;;16.30;93.50;;;;;;5054670;28;20029;-86
2021/08/25 01:24:16;;;;;;;7.95;3.30;;;16.40;93.60;;;;;;5052327;28;20029;-86
2021/08/25 01:26:45;;;;;;;7.53;3.20;;;16.30;93.60;;;;;;5050646;28;20035;-86
2021/08/25 01:29:31;;;;;;;6.80;3.58;;;16.30;93.60;;;;;;5049967;28;20050;-87
2021/08/25 01:31:57;;;;;;;6.22;3.13;;;16.20;93.80;;;;;;5051821;28;20409;-86
2021/08/25 01:34:23;;;;;;;7.57;3.28;;;16.30;93.80;;;;;;5050322;28;20032;-86
2021/08/25 01:36:57;;;;;;;7.28;3.72;;;16.20;93.80;;;;;;5051180;28;20100;-86
2021/08/25 01:39:23;;;;;;;8.88;3.00;;;16.30;93.90;;;;;;5050110;28;20085;-86
2021/08/25 01:41:49;;;;;;;6.65;2.88;;;16.20;93.90;;;;;;5051341;28;20121;-86
2021/08/25 01:44:15;;;;;;;8.93;3.30;;;16.20;94.00;;;;;;5050087;28;20029;-86
2021/08/25 01:46:43;;;;;;;6.53;3.08;;;16.20;94.10;;;;;;5049782;28;20480;-86
2021/08/25 01:49:11;;;;;;;7.65;3.40;;;16.30;94.20;;;;;;5050921;28;20128;-85
2021/08/25 01:51:38;;;;;;;9.20;3.53;;;16.20;94.20;;;;;;5051490;28;20114;-86
2021/08/25 01:54:05;;;;;;;6.13;2.95;;;16.10;94.30;;;;;;5051374;28;20335;-86
2021/08/25 01:56:30;;;;;;;5.30;2.78;;;16.10;94.40;;;;;;5050827;28;20025;-86
2021/08/25 01:58:57;;;;;;;6.97;3.22;;;16.10;94.50;;;;;;5049676;28;20123;-86
2021/08/25 02:01:23;;;;;;;6.82;3.17;;;16.00;94.50;;;;;;5049800;28;20075;-86
2021/08/25 02:03:48;;;;;;;11.60;3.67;;;16.00;94.60;;;;;;5049794;28;20032;-86
2021/08/25 02:06:15;;;;;;;9.27;3.60;;;16.00;94.70;;;;;;5049206;28;20017;-85
2021/08/25 02:08:40;;;;;;;7.90;3.50;;;16.00;94.70;;;;;;5050110;28;20021;-86
2021/08/25 02:11:06;;;;;;;6.20;3.15;;;16.00;94.80;;;;;;5050477;28;20021;-86
2021/08/25 02:13:32;;;;;;;6.57;3.33;;;16.00;94.80;;;;;;5049983;28;20374;-86
2021/08/25 02:15:57;;;;;;;8.10;3.17;;;16.00;94.80;;;;;;5050394;28;20017;-86
2021/08/25 02:18:23;;;;;;;7.05;3.22;;;16.00;94.80;;;;;;5051211;28;20104;-86
2021/08/25 02:20:49;;;;;;;7.35;3.10;;;16.00;94.90;;;;;;5049068;28;20031;-86
2021/08/25 02:23:14;;;;;;;9.20;3.50;;;16.00;94.90;;;;;;5050852;28;20474;-86
2021/08/25 02:25:40;;;;;;;6.82;3.08;;;16.00;95.00;;;;;;5050496;28;20476;-86
2021/08/25 02:28:06;;;;;;;8.20;3.33;;;15.90;95.10;;;;;;5049131;28;20029;-85
2021/08/25 02:30:32;;;;;;;8.05;3.20;;;15.90;95.20;;;;;;5047776;28;20027;-86
2021/08/25 02:32:58;;;;;;;10.10;3.72;;;15.90;95.20;;;;;;5049990;28;20112;-86
2021/08/25 02:35:23;;;;;;;7.18;4.03;;;15.90;95.30;;;;;;5049099;28;20541;-85
2021/08/25 02:37:49;;;;;;;7.07;3.50;;;15.80;95.40;;;;;;5049057;28;20035;-86
2021/08/25 02:40:15;;;;;;;9.40;4.07;;;15.80;95.40;;;;;;5048637;28;20550;-86
2021/08/25 02:42:41;;;;;;;10.80;3.80;;;15.80;95.50;;;;;;5049386;28;20055;-86
2021/08/25 02:45:08;;;;;;;7.53;3.60;;;15.80;95.50;;;;;;5049200;28;20055;-86
2021/08/25 02:47:34;;;;;;;7.43;3.65;;;15.80;95.50;;;;;;5050523;28;20039;-86
2021/08/25 02:49:59;;;;;;;9.65;3.83;;;15.80;95.50;;;;;;5048598;28;20120;-86
2021/08/25 02:52:25;;;;;;;8.77;3.78;;;15.80;95.60;;;;;;5049417;28;20067;-86
2021/08/25 02:54:51;;;;;;;7.85;3.85;;;15.80;95.60;;;;;;5049003;28;20087;-85
2021/08/25 02:57:17;;;;;;;7.68;4.20;;;15.70;95.70;;;;;;5049168;28;20124;-85
2021/08/25 02:59:42;;;;;;;7.00;3.80;;;15.70;95.80;;;;;;5048492;28;20025;-85
2021/08/25 03:02:09;;;;;;;8.18;3.60;;;15.70;95.90;;;;;;5050636;28;20021;-87
2021/08/25 03:04:34;;;;;;;8.88;3.88;;;15.70;95.90;;;;;;5048721;28;20029;-85
2021/08/25 03:07:00;;;;;;;7.10;3.65;;;15.60;95.90;;;;;;5048886;28;20078;-85
2021/08/25 03:09:25;;;;;;;7.57;4.18;;;15.60;96.00;;;;;;5048427;28;20025;-86
2021/08/25 03:11:51;;;;;;;8.45;3.60;;;15.60;96.10;;;;;;5049070;28;20028;-85
2021/08/25 03:14:17;;;;;;;9.30;3.95;;;15.60;96.00;;;;;;5049650;28;20052;-86
2021/08/25 03:16:42;;;;;;;7.90;4.20;;;15.50;96.20;;;;;;5046889;28;20163;-85
2021/08/25 03:19:08;;;;;;;9.82;3.97;;;15.60;96.20;;;;;;5047852;28;20120;-86
2021/08/25 03:21:34;;;;;;;8.38;3.72;;;15.60;96.10;;;;;;5048315;28;20126;-85
2021/08/25 03:23:59;;;;;;;8.20;3.83;;;15.60;96.20;;;;;;5046859;28;20033;-86
2021/08/25 03:26:25;;;;;;;7.97;3.80;;;15.60;96.10;;;;;;5048024;28;20029;-86
2021/08/25 03:28:51;;;;;;;11.65;4.15;;;15.60;96.20;;;;;;5046606;28;20029;-86
2021/08/25 03:31:16;;;;;;;7.97;4.03;;;15.50;96.20;;;;;;5049005;28;20083;-86
2021/08/25 03:33:42;;;;;;;7.93;3.78;;;15.50;96.30;;;;;;5049997;28;20136;-86
2021/08/25 03:36:08;;;;;;;9.43;3.88;;;15.50;96.30;;;;;;5050080;28;20029;-85
2021/08/25 03:38:35;;;;;;;8.13;3.70;;;15.40;96.50;;;;;;5048594;28;20025;-85
2021/08/25 03:41:00;;;;;;;10.32;4.43;;;15.40;96.50;;;;;;5048071;28;20385;-86
2021/08/25 03:43:26;;;;;;;7.97;4.13;;;15.30;96.60;;;;;;5050132;28;20028;-86
2021/08/25 03:45:52;;;;;;;10.05;4.13;;;15.30;96.70;;;;;;5048344;28;20033;-86
2021/08/25 03:48:17;;;;;;;10.00;4.28;;;15.30;96.70;;;;;;5050201;28;20136;-86
2021/08/25 03:50:43;;;;;;;8.85;3.97;;;15.30;96.80;;;;;;5050120;28;20090;-86
2021/08/25 03:53:08;;;;;;;10.57;4.13;;;15.20;97.00;;;;;;5053547;28;20431;-86
2021/08/25 03:55:34;;;;;;;15.32;4.47;;;15.10;97.10;;;;;;5054451;28;20088;-86
2021/08/25 03:58:00;;;;;;;8.07;4.18;;;15.20;97.20;;;;;;5054596;28;20508;-86
2021/08/25 04:00:25;;;;;;;10.23;4.68;;;15.20;97.20;;;;;;5053686;28;20043;-86
2021/08/25 04:02:51;;;;;;;12.10;4.35;;;15.20;97.20;;;;;;5052586;28;20032;-86
2021/08/25 04:05:16;;;;;;;9.77;3.92;;;15.20;97.30;;;;;;5053797;28;20155;-86
2021/08/25 04:07:42;;;;;;;10.98;4.40;;;15.20;97.20;;;;;;5052682;28;20474;-86
2021/08/25 04:10:08;;;;;;;9.15;4.68;;;15.20;97.30;;;;;;5051622;28;20123;-86
2021/08/25 04:12:33;;;;;;;8.57;4.43;;;15.10;97.40;;;;;;5054312;28;20130;-86
2021/08/25 04:14:59;;;;;;;9.23;4.45;;;15.20;97.30;;;;;;5053670;28;20029;-85
2021/08/25 04:17:25;;;;;;;8.20;4.45;;;15.10;97.30;;;;;;5053481;28;20204;-85
2021/08/25 04:19:50;;;;;;;10.50;4.70;;;15.10;97.30;;;;;;5053181;28;20029;-85
2021/08/25 04:22:16;;;;;;;9.73;4.07;;;15.10;97.50;;;;;;5052070;28;20029;-86
2021/08/25 04:24:41;;;;;;;10.65;6.07;;;15.20;97.40;;;;;;5055861;28;20021;-86
2021/08/25 04:27:07;;;;;;;12.18;5.25;;;15.10;97.40;;;;;;5056961;22;20037;-85
2021/08/25 04:29:33;;;;;;;9.90;4.53;;;15.10;97.50;;;;;;5032528;28;20473;-85
2021/08/25 04:31:58;;;;;;;11.43;4.82;;;15.00;97.70;;;;;;5032077;28;20088;-85
2021/08/25 04:34:24;;;;;;;10.05;4.97;;;15.00;97.70;;;;;;5032937;28;20025;-85
2021/08/25 04:36:49;;;;;;;8.30;4.35;;;15.00;97.90;;;;;;5032938;28;20021;-85
2021/08/25 04:39:15;;;;;;;11.00;5.43;;;14.90;97.90;;;;;;5032390;28;20112;-85
2021/08/25 04:41:41;;;;;;;9.85;4.65;;;15.00;98.00;;;;;;5031960;28;20112;-86
2021/08/25 04:44:06;;;;;;;8.73;4.25;;;14.80;98.10;;;;;;5032924;28;20457;-85
2021/08/25 04:46:32;;;;;;;7.93;4.45;;;14.80;98.30;;;;;;5032736;28;20017;-85
2021/08/25 04:48:58;;;;;;;9.50;4.47;;;14.80;98.20;;;;;;5030880;28;20397;-85
2021/08/25 04:51:24;;;;;;;12.77;5.00;;;14.90;98.20;;;;;;5032531;28;20017;-85
2021/08/25 04:53:50;;;;;;;10.35;4.93;;;14.90;98.20;;;;;;5031324;28;20449;-85
2021/08/25 04:56:16;;;;;;;11.23;4.85;;;14.90;98.30;;;;;;5030426;28;20032;-85
2021/08/25 04:58:41;;;;;;;10.00;4.90;;;14.90;98.30;;;;;;5031901;28;20109;-85
2021/08/25 05:01:08;;;;;;;11.70;4.60;;;14.90;98.30;;;;;;5030564;28;20064;-86
2021/08/25 05:03:34;;;;;;;10.95;5.57;;;14.90;98.60;;;;;;5032570;28;20028;-85
2021/08/25 05:06:06;;;;;;;10.68;4.95;;;14.90;98.20;;;;;;5032153;28;20022;-85
2021/08/25 05:08:31;;;;;;;11.45;5.35;;;14.90;98.20;;;;;;5032438;28;20091;-86
2021/08/25 05:10:57;;;;;;;9.05;5.00;;;15.00;98.20;;;;;;5030023;28;20500;-85
2021/08/25 05:13:22;;;;;;;10.85;5.45;;;14.90;98.20;;;;;;5032527;28;20104;-85
2021/08/25 05:15:48;;;;;;;12.60;5.30;;;14.90;98.30;;;;;;5030615;28;20022;-85
2021/08/25 05:18:14;;;;;;;9.50;4.80;;;15.00;98.20;;;;;;5032595;28;20083;-86
2021/08/25 05:20:40;;;;;;;11.82;4.88;;;15.00;98.40;;;;;;5031375;28;20083;-85
2021/08/25 05:23:05;;;;;;;9.55;5.18;;;15.00;98.10;;;;;;5030600;28;20041;-85
2021/08/25 05:25:31;;;;;;;11.95;5.20;;;15.10;98.10;;;;;;5032974;28;20053;-92
2021/08/25 05:27:56;;;;;;;15.80;5.63;;;15.10;97.90;;;;;;5035159;28;20091;-92
2021/08/25 05:30:22;;;;;;;11.05;5.07;;;15.20;97.90;;;;;;5033211;28;20029;-88
2021/08/25 05:32:52;;;;;;;12.43;5.10;;;15.20;97.90;;;;;;5031838;28;20367;-89
2021/08/25 05:35:19;;;;;;;10.55;5.13;;;15.20;97.90;;;;;;5030676;28;20030;-89
2021/08/25 05:42:55;;;;;;;10.52;5.47;;;15.30;97.80;;;;;;5050638;28;20505;-87
2021/08/25 05:45:21;;;;;;;12.90;5.32;;;15.40;97.80;;;;;;5033584;28;20025;-87
2021/08/25 05:47:47;;;;;;;12.07;5.75;;;15.40;97.70;;;;;;5033609;28;20028;-86
2021/08/25 05:50:13;;;;;;;11.52;5.47;;;15.40;97.70;;;;;;5032928;28;20025;-86
2021/08/25 05:52:38;;;;;;;14.35;5.65;;;15.50;97.70;;;;;;5024894;28;20495;-86
2021/08/25 05:55:06;;;;;;;15.55;6.40;;;15.50;97.70;;;;;;4993629;28;20029;-86
2021/08/25 05:57:32;;;;;;;13.53;6.30;;;15.50;97.60;;;;;;4993731;28;20049;-87
2021/08/25 05:59:57;;;;;;;10.00;4.78;;;15.50;97.70;;;;;;5011142;28;20715;-87
2021/08/25 06:02:23;;;;;;;12.20;5.68;;;15.50;97.70;;;;;;4993446;28;20121;-86
2021/08/25 06:04:52;;;;;;;11.82;5.75;;;15.60;97.70;;;;;;4993482;28;20064;-87
2021/08/25 06:07:18;;;;;;;13.57;6.30;;;15.60;97.70;;;;;;4993823;28;20018;-87
2021/08/25 06:09:43;;;;;;;12.30;5.47;;;15.60;97.60;;;;;;4993691;28;20339;-86
2021/08/25 06:12:09;;;;;;;14.25;5.97;;;15.60;97.70;;;;;;5011313;28;20435;-86
2021/08/25 06:14:35;;;;;;;16.02;6.18;;;15.70;97.60;;;;;;4992959;28;20030;-86
2021/08/25 06:17:01;;;;;;;13.65;6.32;;;15.80;97.70;;;;;;4993644;28;20037;-86
2021/08/25 06:22:51;;;;;;;10.68;5.47;;;15.90;97.60;;;;;;5011413;28;20075;-87
2021/08/25 06:25:17;;;;;;;12.32;6.05;;;16.00;97.40;;;;;;4992959;28;20459;-87
2021/08/25 06:27:42;;;;;;;11.52;5.70;;;16.00;97.30;;;;;;5011069;28;20105;-86
2021/08/25 06:30:09;;;;;;;10.90;5.38;;;16.10;97.20;;;;;;5010551;28;20026;-85
2021/08/25 06:32:34;;;;;;;13.02;6.97;;;16.10;97.10;;;;;;4993456;28;20022;-87
2021/08/25 06:35:00;;;;;;;17.15;6.65;;;16.20;97.50;;;;;;4993957;28;20042;-87
2021/08/25 06:37:26;;;;;;;15.45;7.20;;;16.20;97.90;;;;;;4994987;28;20026;-86
2021/08/25 06:39:51;;;;;;;15.73;6.80;;;16.20;97.80;;;;;;4994373;28;20037;-86
2021/08/25 06:42:17;;;;;;;16.63;7.10;;;16.10;97.60;;;;;;4996303;28;20038;-86
2021/08/25 06:44:42;;;;;;;16.75;6.45;;;16.20;97.50;;;;;;4995420;28;20026;-86
2021/08/25 06:47:08;;;;;;;20.77;7.43;;;16.20;97.60;;;;;;4993534;28;20022;-86
2021/08/25 06:49:34;;;;;;;14.43;6.55;;;16.20;97.40;;;;;;4992780;28;20045;-86
2021/08/25 06:51:59;;;;;;;19.30;7.28;;;16.20;97.40;;;;;;4993131;28;20060;-86
2021/08/25 06:54:25;;;;;;;17.10;6.80;;;16.30;97.40;;;;;;4993432;28;20485;-86
2021/08/25 06:56:50;;;;;;;18.98;7.82;;;16.30;97.10;;;;;;4992961;28;20524;-85
2021/08/25 06:59:16;;;;;;;17.33;6.90;;;16.40;97.20;;;;;;4992758;28;20036;-85
2021/08/25 07:01:42;;;;;;;16.15;6.65;;;16.40;97.10;;;;;;4992901;28;20080;-87
2021/08/25 07:04:08;;;;;;;14.73;6.95;;;16.50;97.00;;;;;;4998335;28;20112;-89
2021/08/25 07:06:33;;;;;;;14.68;6.40;;;16.50;96.50;;;;;;4993992;28;20599;-88
2021/08/25 07:08:59;;;;;;;15.32;6.45;;;16.60;96.50;;;;;;5010642;28;20032;-88
2021/08/25 07:11:25;;;;;;;17.70;6.88;;;16.60;96.40;;;;;;5010900;28;20033;-89
2021/08/25 07:13:50;;;;;;;15.02;6.80;;;16.70;96.40;;;;;;4993493;28;20034;-89
2021/08/25 07:16:16;;;;;;;14.55;6.60;;;16.70;96.20;;;;;;4993323;28;20442;-89
2021/08/25 07:18:43;;;;;;;13.32;6.38;;;16.80;96.10;;;;;;4995249;28;20494;-87
2021/08/25 07:21:10;;;;;;;13.52;6.47;;;16.80;96.20;;;;;;5011577;28;20479;-87
2021/08/25 07:23:37;;;;;;;16.38;6.53;;;16.80;96.00;;;;;;4994062;28;20037;-87
2021/08/25 07:26:02;;;;;;;14.20;6.60;;;16.90;95.90;;;;;;4995292;28;20041;-87
2021/08/25 07:28:28;;;;;;;12.45;5.93;;;16.90;95.80;;;;;;5014955;28;20052;-87
2021/08/25 07:30:54;;;;;;;12.60;6.18;;;17.00;95.80;;;;;;4996896;28;20026;-87
2021/08/25 07:33:20;;;;;;;9.65;5.25;;;17.00;95.80;;;;;;4997791;28;20129;-84
2021/08/25 07:35:48;;;;;;;10.07;4.88;;;17.00;95.70;;;;;;5015490;28;20098;-88
2021/08/25 07:38:15;;;;;;;12.60;6.07;;;17.10;95.70;;;;;;5014762;28;20026;-88
2021/08/25 07:40:40;;;;;;;10.70;5.35;;;17.10;95.70;;;;;;5014332;28;20030;-87
2021/08/25 07:43:06;;;;;;;11.27;5.50;;;17.10;95.70;;;;;;4996801;28;20104;-86
2021/08/25 07:45:35;;;;;;;11.75;5.95;;;17.20;95.40;;;;;;4996862;28;20026;-85
2021/08/25 07:48:01;;;;;;;12.10;5.80;;;17.20;95.40;;;;;;5016245;28;20064;-88
2021/08/25 07:50:26;;;;;;;11.05;5.85;;;17.20;95.00;;;;;;4996085;28;20061;-89
2021/08/25 07:52:52;;;;;;;8.50;4.80;;;17.30;95.10;;;;;;4997534;28;20030;-87
2021/08/25 07:55:18;;;;;;;10.65;5.20;;;17.30;95.00;;;;;;4997259;28;20026;-87
2021/08/25 07:57:43;;;;;;;12.15;5.90;;;17.30;95.00;;;;;;4996730;28;20026;-89
2021/08/25 08:00:10;;;;;;;12.63;5.03;;;17.40;95.10;;;;;;5014289;28;20037;-89
2021/08/25 08:02:35;;;;;;;10.15;4.88;;;17.40;95.10;;;;;;5015166;28;20533;-90
2021/08/25 08:05:03;;;;;;;10.95;5.30;;;17.50;95.00;;;;;;4997705;28;20026;-88
2021/08/25 08:07:29;;;;;;;12.48;5.47;;;17.50;95.20;;;;;;4999813;28;20021;-88
2021/08/25 08:09:55;;;;;;;9.85;5.22;;;17.50;96.00;;;;;;5019645;28;20036;-88
2021/08/25 08:12:20;;;;;;;10.75;4.75;;;17.60;95.80;;;;;;5002158;28;20029;-88
2021/08/25 08:14:46;;;;;;;12.40;5.57;;;17.60;95.80;;;;;;4998599;28;20034;-87
2021/08/25 08:17:11;;;;;;;10.18;4.97;;;17.60;95.60;;;;;;5001824;28;20030;-88
2021/08/25 08:19:38;;;;;;;10.50;5.07;;;17.70;95.70;;;;;;5000897;28;20371;-88
2021/08/25 08:22:04;;;;;;;10.10;5.22;;;17.70;96.20;;;;;;4983741;28;20465;-87
2021/08/25 08:24:30;;;;;;;9.23;4.82;;;17.60;96.20;;;;;;4981249;28;20121;-90
2021/08/25 08:26:56;;;;;;;10.52;5.40;;;17.70;96.50;;;;;;4994209;28;20046;-88
2021/08/25 08:29:22;;;;;;;10.23;5.28;;;17.70;96.20;;;;;;4976932;28;20515;-87
2021/08/25 08:31:47;;;;;;;11.00;5.22;;;17.70;96.10;;;;;;4976852;28;20030;-86
2021/08/25 08:34:13;;;;;;;15.95;6.13;;;17.70;95.60;;;;;;4976113;28;20046;-85
2021/08/25 08:36:39;;;;;;;12.65;5.50;;;17.80;96.10;;;;;;4975387;28;20506;-88
2021/08/25 08:39:04;;;;;;;11.20;5.32;;;17.90;95.80;;;;;;4976170;28;20053;-87
2021/08/25 08:41:30;;;;;;;12.95;6.20;;;17.90;95.20;;;;;;4976273;28;20501;-84
2021/08/25 08:43:57;;;;;;;9.82;5.57;;;18.00;94.00;;;;;;4976408;28;20040;-84
2021/08/25 08:46:23;;;;;;;12.65;5.20;;;18.00;94.30;;;;;;4975777;28;20026;-85
2021/08/25 08:48:51;;;;;;;11.65;5.45;;;18.00;94.80;;;;;;5007778;28;20026;-87
2021/08/25 08:51:20;;;;;;;11.60;5.57;;;18.00;94.50;;;;;;4990087;28;20038;-88
2021/08/25 08:53:47;;;;;;;9.65;5.38;;;18.00;93.80;;;;;;4976404;28;20418;-87
2021/08/25 08:56:13;;;;;;;9.65;5.03;;;18.00;94.90;;;;;;4975922;28;20081;-86
2021/08/25 08:58:39;;;;;;;8.80;4.22;;;18.00;95.80;;;;;;4993610;28;20026;-88
2021/08/25 09:01:05;;;;;;;10.18;5.07;;;18.00;95.10;;;;;;4975357;28;20688;-84
2021/08/25 09:03:35;;;;;;;11.55;4.75;;;18.00;96.50;;;;;;4976854;28;20034;-84
2021/08/25 09:06:02;;;;;;;8.57;4.20;;;17.90;95.20;;;;;;4993399;28;20026;-84
2021/08/25 09:08:30;;;;;;;8.85;4.43;;;18.00;94.80;;;;;;4994146;28;20026;-84
2021/08/25 09:11:11;;;;;;;8.57;4.60;;;17.90;93.70;;;;;;4975447;28;20510;-84
2021/08/25 09:13:48;;;;;;;9.35;4.70;;;18.00;93.90;;;;;;4976374;28;20487;-84
2021/08/25 09:16:34;;;;;;;9.88;4.22;;;18.00;92.60;;;;;;4976425;28;20030;-84
2021/08/25 09:19:07;;;;;;;11.55;4.35;;;18.00;93.50;;;;;;4975529;28;20034;-84
2021/08/25 09:21:33;;;;;;;7.72;3.95;;;18.10;92.20;;;;;;4976254;28;20045;-84
2021/08/25 09:23:59;;;;;;;10.50;4.28;;;18.10;92.10;;;;;;4993490;28;20113;-84
2021/08/25 09:26:25;;;;;;;11.15;4.28;;;18.20;91.90;;;;;;4975671;28;20114;-84
2021/08/25 09:28:51;;;;;;;7.97;4.25;;;18.20;92.20;;;;;;4993440;28;20023;-84
2021/08/25 09:31:17;;;;;;;8.10;4.07;;;18.20;93.80;;;;;;4993376;28;20019;-83
2021/08/25 09:33:46;;;;;;;8.95;4.68;;;18.30;91.80;;;;;;4994050;28;20026;-84
2021/08/25 09:36:17;;;;;;;8.77;4.22;;;18.30;93.10;;;;;;4975852;28;20483;-84
2021/08/25 09:38:56;;;;;;;8.20;3.90;;;18.20;93.20;;;;;;4992245;28;20177;-84
2021/08/25 09:41:22;;;;;;;9.95;4.30;;;18.30;92.70;;;;;;4976059;28;20070;-84
2021/08/25 09:43:49;;;;;;;8.45;4.20;;;18.30;90.90;;;;;;4994417;28;20530;-84
2021/08/25 09:46:16;;;;;;;8.73;3.78;;;18.30;90.80;;;;;;4975958;28;20062;-84
2021/08/25 09:48:43;;;;;;;6.88;3.72;;;18.30;91.70;;;;;;4992990;28;20029;-84
2021/08/25 09:51:11;;;;;;;8.98;3.95;;;18.30;91.80;;;;;;4993626;28;20037;-84
2021/08/25 09:53:37;;;;;;;7.75;3.53;;;18.40;90.60;;;;;;4993895;28;20038;-83
2021/08/25 09:56:18;;;;;;;7.10;3.30;;;18.40;90.20;;;;;;4975992;28;20172;-84
2021/08/25 09:58:44;;;;;;;7.85;3.58;;;18.40;90.80;;;;;;4977021;28;20358;-87
2021/08/25 10:01:10;;;;;;;7.13;3.53;;;18.40;91.30;;;;;;4986348;28;20030;-84
2021/08/25 10:03:35;;;;;;;6.53;3.15;;;18.40;90.70;;;;;;4994401;28;20053;-85
2021/08/25 10:06:01;;;;;;;6.35;3.17;;;18.40;90.70;;;;;;5012380;28;20397;-84
2021/08/25 10:08:27;;;;;;;8.75;3.50;;;18.40;91.00;;;;;;4994391;28;20120;-84
2021/08/25 10:10:53;;;;;;;10.93;4.03;;;18.40;91.20;;;;;;5011097;28;20081;-84
2021/08/25 10:13:19;;;;;;;5.90;3.38;;;18.40;92.30;;;;;;5013418;28;20030;-85
2021/08/25 10:15:45;;;;;;;8.52;4.18;;;18.40;91.20;;;;;;5011981;28;20386;-86
2021/08/25 10:18:22;;;;;;;8.18;3.50;;;18.50;90.60;;;;;;4994795;28;20108;-85
2021/08/25 10:20:47;;;;;;;8.75;3.40;;;18.60;88.80;;;;;;5011076;28;20026;-86
2021/08/25 10:23:13;;;;;;;8.25;3.65;;;18.70;88.20;;;;;;5011703;28;20057;-86
2021/08/25 10:26:08;;;;;;;8.25;3.30;;;18.80;87.40;;;;;;4993581;28;20022;-86
2021/08/25 10:28:59;;;;;;;8.88;3.47;;;18.80;88.50;;;;;;5011738;28;20097;-86
2021/08/25 10:31:25;;;;;;;8.52;3.75;;;18.90;87.20;;;;;;4994354;28;20018;-86
2021/08/25 10:34:10;;;;;;;7.05;3.78;;;18.90;86.90;;;;;;4984726;28;20034;-86
2021/08/25 10:36:36;;;;;;;6.90;3.42;;;18.90;88.20;;;;;;4975508;28;20116;-87
2021/08/25 10:39:03;;;;;;;5.93;3.35;;;18.90;88.60;;;;;;4975108;28;20126;-86
2021/08/25 10:41:28;;;;;;;10.07;3.72;;;18.90;87.30;;;;;;4992855;28;20038;-86
2021/08/25 10:43:56;;;;;;;6.80;3.80;;;19.00;86.60;;;;;;4974953;28;20030;-86
2021/08/25 10:46:21;;;;;;;6.68;3.42;;;18.90;87.30;;;;;;4992522;28;20081;-84
2021/08/25 10:48:48;;;;;;;6.85;3.20;;;18.90;87.30;;;;;;4991994;28;20534;-84
2021/08/25 10:51:35;;;;;;;6.60;3.40;;;19.00;86.70;;;;;;4990899;28;20022;-84
2021/08/25 10:54:03;;;;;;;6.55;3.45;;;19.00;85.80;;;;;;4973574;28;20026;-84
2021/08/25 10:56:41;;;;;;;7.50;3.55;;;19.10;84.20;;;;;;4972768;28;20026;-84
2021/08/25 10:59:11;;;;;;;7.55;3.13;;;19.20;84.20;;;;;;4990531;28;20065;-84
2021/08/25 11:01:51;;;;;;;6.57;3.28;;;19.20;82.90;;;;;;4991070;28;20022;-84
2021/08/25 11:04:22;;;;;;;7.53;3.33;;;19.30;82.90;;;;;;4991149;28;20041;-84
2021/08/25 11:07:02;;;;;;;6.82;3.08;;;19.30;84.00;;;;;;4973580;28;20443;-84
2021/08/25 11:09:34;;;;;;;10.73;3.72;;;19.30;83.50;;;;;;4990341;28;20022;-84
2021/08/25 11:12:11;;;;;;;6.90;3.30;;;19.30;83.90;;;;;;4973919;28;20018;-84
2021/08/25 11:14:44;;;;;;;6.05;2.85;;;19.30;83.90;;;;;;4973258;28;20026;-84
2021/08/25 11:17:18;;;;;;;7.80;3.17;;;19.30;84.60;;;;;;4973931;28;20061;-84
2021/08/25 11:19:47;;;;;;;7.93;3.97;;;19.30;82.20;;;;;;4972726;28;20435;-84
2021/08/25 11:22:17;;;;;;;7.65;3.53;;;19.30;80.60;;;;;;4973335;28;20058;-84
2021/08/25 11:24:49;;;;;;;8.15;3.47;;;19.50;80.00;;;;;;4990600;28;20061;-84
2021/08/25 11:27:29;;;;;;;7.95;3.67;;;19.50;80.00;;;;;;4999838;28;20102;-84
2021/08/25 11:30:04;;;;;;;8.35;3.72;;;19.50;79.70;;;;;;4991543;28;20034;-84
2021/08/25 11:32:30;;;;;;;7.07;3.47;;;19.60;80.00;;;;;;4992521;28;20095;-84
2021/08/25 11:34:56;;;;;;;8.13;3.17;;;19.60;79.70;;;;;;5009906;28;20026;-84
2021/08/25 11:37:22;;;;;;;7.95;3.47;;;19.60;79.20;;;;;;5010204;28;20053;-84
2021/08/25 11:40:06;;;;;;;5.88;3.00;;;19.60;80.80;;;;;;4991375;28;20057;-86
2021/08/25 11:42:34;;;;;;;7.57;3.47;;;19.60;81.50;;;;;;4991443;28;20571;-84
2021/08/25 11:48:54;;;;;;;7.60;3.63;;;19.70;81.00;;;;;;4847327;29;20041;-88
2021/08/25 11:51:19;;;;;;;8.93;3.92;;;19.70;80.70;;;;;;4893865;29;20025;-86
2021/08/25 11:53:46;;;;;;;6.38;3.17;;;19.70;81.00;;;;;;4994491;28;20045;-86
2021/08/25 11:56:12;;;;;;;9.90;3.67;;;19.70;81.50;;;;;;5010327;28;20025;-86
2021/08/25 11:58:38;;;;;;;9.63;3.42;;;19.80;82.00;;;;;;5010784;28;20026;-87
2021/08/25 12:01:04;;;;;;;8.68;4.18;;;19.90;82.60;;;;;;4993382;28;20026;-87
2021/08/25 12:03:46;;;;;;;10.52;3.60;;;19.90;82.30;;;;;;4993155;28;20045;-87
2021/08/25 12:06:13;;;;;;;9.02;4.05;;;20.10;80.80;;;;;;4993247;28;20026;-90
2021/08/25 12:08:44;;;;;;;8.27;3.80;;;20.20;79.70;;;;;;4993388;28;20092;-89
2021/08/25 12:11:11;;;;;;;11.30;4.20;;;20.20;80.20;;;;;;4993767;28;20072;-87
2021/08/25 12:13:39;;;;;;;9.85;3.88;;;20.30;80.10;;;;;;5014302;28;20025;-88
2021/08/25 12:19:25;;;;;;;8.43;3.63;;;20.40;78.90;;;;;;5011714;28;20104;-91
2021/08/25 12:21:53;;;;;;;10.77;3.97;;;20.40;79.00;;;;;;5015850;28;20379;-91
2021/08/25 12:24:21;;;;;;;8.13;3.47;;;20.50;79.00;;;;;;5016307;28;20030;-91
2021/08/25 12:27:38;;;;;;;;;;;;;;;;;;;;;
2021/08/25 12:29:59;;;;;;;9.13;4.75;;;20.50;79.30;;;;;;5012853;28;20072;-91
2021/08/25 12:32:41;;;;;;;6.45;3.22;;;20.50;79.20;;;;;;4997475;28;20073;-91
2021/08/25 12:38:12;;;;;;;9.25;4.15;;;20.50;79.00;;;;;;5001063;28;20045;-91
2021/08/25 12:40:41;;;;;;;9.70;3.80;;;20.40;79.00;;;;;;4998638;28;20068;-91
2021/08/25 12:43:06;;;;;;;;;;;20.50;78.90;;;;;;4999857;28;20034;-91
2021/08/25 12:45:32;;;;;;;9.98;4.20;;;20.40;78.50;;;;;;4999305;28;19967;-91
2021/08/25 12:47:58;;;;;;;7.70;4.30;;;20.50;78.40;;;;;;5001033;28;20026;-91
2021/08/25 12:50:25;;;;;;;10.10;4.18;;;20.50;77.80;;;;;;5001110;28;20048;-91
2021/08/25 12:52:52;;;;;;;8.98;4.25;;;20.60;77.50;;;;;;4998223;28;20142;-92
2021/08/25 12:55:17;;;;;;;9.25;4.07;;;20.80;77.60;;;;;;4999573;28;20517;-91
2021/08/25 12:57:43;;;;;;;7.88;3.60;;;20.90;77.10;;;;;;4999441;28;20033;-90
2021/08/25 13:00:10;;;;;;;10.23;4.28;;;20.90;76.40;;;;;;5017286;28;20054;-91
2021/08/25 13:02:40;;;;;;;7.47;4.20;;;21.00;75.40;;;;;;5016676;28;20112;-91
2021/08/25 13:05:09;;;;;;;6.75;3.60;;;21.00;75.40;;;;;;4999996;28;20089;-92